createdAt,value
2023-04-10T00:08:28.949Z,26.20
2023-04-10T00:18:54.742Z,24.50
2023-04-10T00:29:20.480Z,26.40
2023-04-10T00:39:46.756Z,27.80
2023-04-10T00:50:13.967Z,26.60
2023-04-10T01:00:39.735Z,26.80
2023-04-10T01:11:14.272Z,23.60
2023-04-10T01:21:42.009Z,26.60
2023-04-10T01:32:14.203Z,26.90
2023-04-10T01:42:45.077Z,27.70
2023-04-10T01:53:11.368Z,29.10
2023-04-10T02:03:37.360Z,32.20
2023-04-10T02:14:09.675Z,31.70
2023-04-10T02:24:36.501Z,32.60
2023-04-10T02:35:03.228Z,28.50
2023-04-10T02:45:28.815Z,28.70
2023-04-10T02:55:55.787Z,36.00
2023-04-10T03:06:22.254Z,31.80
2023-04-10T03:16:48.863Z,31.30
2023-04-10T03:27:14.647Z,30.80
2023-04-10T03:37:42.347Z,33.80
2023-04-10T03:48:08.606Z,30.40
2023-04-10T03:58:34.193Z,32.40
2023-04-10T04:09:08.381Z,30.10
2023-04-10T04:19:34.262Z,25.60
2023-04-10T04:30:01.077Z,27.00
2023-04-10T04:40:26.970Z,27.90
2023-04-10T04:50:53.050Z,28.80
2023-04-10T05:01:18.916Z,35.00
2023-04-10T05:11:45.128Z,36.50
2023-04-10T05:22:10.826Z,38.50
2023-04-10T05:32:36.639Z,41.20
2023-04-10T05:43:02.692Z,34.40
2023-04-10T05:53:32.466Z,35.30
2023-04-10T06:03:58.483Z,37.10
2023-04-10T06:14:25.920Z,37.50
2023-04-10T06:24:52.201Z,33.00
2023-04-10T06:35:18.382Z,29.40
2023-04-10T06:45:44.260Z,37.30
2023-04-10T06:56:11.370Z,35.90
2023-04-10T07:06:37.657Z,25.50
2023-04-10T07:17:04.738Z,27.30
2023-04-10T07:27:30.830Z,26.70
2023-04-10T07:37:56.798Z,28.40
2023-04-10T07:48:22.813Z,25.50
2023-04-10T07:58:49.393Z,26.70
2023-04-10T08:09:15.015Z,28.20
2023-04-10T08:19:41.539Z,30.90
2023-04-10T08:30:09.045Z,29.10
2023-04-10T08:40:37.939Z,28.10
2023-04-10T08:51:10.767Z,27.10
2023-04-10T09:01:42.968Z,27.90
2023-04-10T09:12:08.736Z,28.30
2023-04-10T09:22:36.990Z,27.70
2023-04-10T09:33:03.722Z,24.70
2023-04-10T09:43:30.467Z,24.50
2023-04-10T09:53:56.591Z,25.70
2023-04-10T10:04:23.189Z,27.90
2023-04-10T10:14:55.132Z,26.80
2023-04-10T10:25:21.507Z,26.50
2023-04-10T10:35:48.210Z,29.70
2023-04-10T10:46:18.817Z,26.00
2023-04-10T10:56:45.073Z,27.90
2023-04-10T11:07:11.362Z,26.90
2023-04-10T11:17:54.726Z,29.50
2023-04-10T11:28:42.483Z,29.30
2023-04-10T11:39:10.387Z,29.80
2023-04-10T11:49:37.162Z,30.40
2023-04-10T12:00:03.305Z,29.30
2023-04-10T12:10:29.731Z,28.40
2023-04-10T12:20:57.666Z,27.30
2023-04-10T12:31:29.784Z,25.30
2023-04-10T12:41:55.509Z,27.30
2023-04-10T12:52:26.507Z,22.30
2023-04-10T13:02:52.864Z,24.60
2023-04-10T13:13:19.938Z,22.60
2023-04-10T13:23:47.502Z,21.70
2023-04-10T13:34:13.585Z,21.50
2023-04-10T13:44:39.606Z,20.80
2023-04-10T13:55:06.596Z,21.80
2023-04-10T14:05:32.416Z,19.80
2023-04-10T14:15:58.165Z,22.20
2023-04-10T14:26:24.706Z,18.70
2023-04-10T14:36:55.676Z,18.70
2023-04-10T14:47:21.488Z,20.60
2023-04-10T14:57:47.418Z,22.20
2023-04-10T15:08:13.392Z,72.40
2023-04-10T15:18:39.433Z,24.60
2023-04-10T15:29:05.642Z,18.80
2023-04-10T15:39:31.887Z,18.40
2023-04-10T15:49:59.171Z,17.30
2023-04-10T16:00:25.958Z,16.80
2023-04-10T16:10:51.691Z,17.10
2023-04-10T16:21:17.972Z,17.60
2023-04-10T16:31:43.719Z,16.30
2023-04-10T16:42:09.926Z,16.80
2023-04-10T16:52:37.359Z,15.30
2023-04-10T17:03:03.861Z,4.60
2023-04-10T17:13:31.094Z,3.10
2023-04-10T17:23:56.650Z,6.30
2023-04-10T17:34:22.767Z,4.70
2023-04-10T17:44:48.731Z,6.20
2023-04-10T17:55:18.432Z,7.70
2023-04-10T18:05:46.862Z,7.40
2023-04-10T18:16:13.066Z,7.60
2023-04-10T18:26:39.302Z,8.90
2023-04-10T18:37:06.800Z,7.40
2023-04-10T18:47:35.312Z,8.50
2023-04-10T18:58:01.740Z,5.40
2023-04-10T19:08:27.974Z,7.80
2023-04-10T19:18:56.921Z,6.90
2023-04-10T19:29:22.742Z,13.60
2023-04-10T19:39:48.458Z,19.50
2023-04-10T19:50:15.300Z,8.90
2023-04-10T20:00:41.252Z,6.90
2023-04-10T20:11:08.056Z,8.40
2023-04-10T20:21:34.678Z,9.00
2023-04-10T20:32:00.929Z,9.70
2023-04-10T20:42:26.682Z,8.80
2023-04-10T20:52:52.413Z,15.60
2023-04-10T21:03:18.558Z,15.40
2023-04-10T21:13:44.682Z,21.10
2023-04-10T21:24:11.969Z,15.40
2023-04-10T21:34:38.046Z,14.30
2023-04-10T21:45:04.682Z,14.80
2023-04-10T21:55:30.614Z,17.80
2023-04-10T22:05:56.583Z,27.60
2023-04-10T22:16:22.876Z,27.70
2023-04-10T22:26:48.724Z,26.90
2023-04-10T22:37:14.630Z,24.40
2023-04-10T22:47:40.535Z,23.20
2023-04-10T22:58:06.028Z,19.30
2023-04-10T23:08:32.168Z,26.30
2023-04-10T23:18:58.131Z,25.90
2023-04-10T23:29:24.250Z,23.40
2023-04-10T23:39:50.200Z,22.40
2023-04-10T23:50:16.033Z,25.50
